createdAt,value
2016-12-21T00:00:35.395Z,0
2016-12-21T00:02:08.927Z,0
2016-12-21T00:03:42.551Z,0
2016-12-21T00:05:15.490Z,0
2016-12-21T00:06:48.761Z,0
2016-12-21T00:08:22.092Z,0
2016-12-21T00:09:56.235Z,0
2016-12-21T00:11:29.470Z,0
2016-12-21T00:13:04.621Z,0
2016-12-21T00:14:39.728Z,0
2016-12-21T00:16:12.727Z,0
2016-12-21T00:18:08.563Z,0
2016-12-21T00:19:45.704Z,0
2016-12-21T00:21:20.868Z,0
2016-12-21T00:22:57.500Z,0
2016-12-21T00:24:31.927Z,0
2016-12-21T00:26:00.763Z,0
2016-12-21T00:27:34.957Z,0
2016-12-21T00:29:07.916Z,0
2016-12-21T00:30:41.335Z,0
2016-12-21T00:32:15.514Z,0
2016-12-21T00:33:49.704Z,0
2016-12-21T00:35:51.963Z,0
2016-12-21T00:37:25.718Z,0
2016-12-21T00:38:58.954Z,0
2016-12-21T00:40:32.160Z,0
2016-12-21T00:42:07.690Z,0
2016-12-21T00:43:21.816Z,0
2016-12-21T00:44:36.213Z,0
2016-12-21T00:45:51.011Z,0
2016-12-21T00:47:06.284Z,0
2016-12-21T00:48:21.223Z,0
2016-12-21T00:49:35.402Z,0
2016-12-21T00:50:49.176Z,0
2016-12-21T00:52:04.028Z,0
2016-12-21T00:53:18.753Z,0
2016-12-21T00:56:02.366Z,0
2016-12-21T00:57:16.429Z,0
2016-12-21T00:58:30.636Z,0
2016-12-21T00:59:44.611Z,0
2016-12-21T01:00:58.447Z,0
2016-12-21T01:02:12.532Z,0
2016-12-21T01:03:26.578Z,0
2016-12-21T01:04:40.271Z,0
2016-12-21T01:05:54.220Z,0
2016-12-21T01:07:07.921Z,0
2016-12-21T01:08:21.869Z,0
2016-12-21T01:09:35.860Z,0
2016-12-21T01:10:49.835Z,0
2016-12-21T01:12:03.569Z,0
2016-12-21T01:13:17.574Z,0
2016-12-21T01:14:31.472Z,0
2016-12-21T01:15:45.542Z,0
2016-12-21T01:16:59.379Z,0
2016-12-21T01:18:13.387Z,0
2016-12-21T01:19:27.499Z,0
2016-12-21T01:20:41.685Z,0
2016-12-21T01:21:55.656Z,0
2016-12-21T01:23:09.408Z,0
2016-12-21T01:24:23.533Z,0
2016-12-21T01:25:37.268Z,0
2016-12-21T01:26:51.226Z,0
2016-12-21T01:28:05.760Z,0
2016-12-21T01:29:19.642Z,0
2016-12-21T01:30:33.424Z,0
2016-12-21T01:31:47.122Z,0
2016-12-21T01:33:01.873Z,0
2016-12-21T01:34:16.154Z,0
2016-12-21T01:35:30.593Z,0
2016-12-21T01:36:45.048Z,0
2016-12-21T01:37:59.032Z,0
2016-12-21T01:39:12.971Z,0
2016-12-21T01:40:28.089Z,0
2016-12-21T01:41:42.113Z,0
2016-12-21T01:42:56.716Z,0
2016-12-21T01:44:12.804Z,0
2016-12-21T01:45:28.907Z,0
2016-12-21T01:46:43.709Z,0
2016-12-21T01:47:58.253Z,0
2016-12-21T01:49:12.001Z,0
2016-12-21T01:50:26.013Z,0
2016-12-21T01:51:41.121Z,0
2016-12-21T01:52:56.770Z,0
2016-12-21T01:54:11.651Z,0
2016-12-21T01:55:27.426Z,0
2016-12-21T01:56:41.960Z,0
2016-12-21T01:57:58.485Z,0
2016-12-21T01:59:16.199Z,0
2016-12-21T02:00:30.724Z,0
2016-12-21T02:04:27.755Z,0
2016-12-21T02:05:41.724Z,0
2016-12-21T02:06:55.490Z,0
2016-12-21T02:08:10.041Z,0
2016-12-21T02:09:24.147Z,0
2016-12-21T02:12:06.941Z,0
2016-12-21T02:13:20.756Z,0
2016-12-21T02:14:35.030Z,0
2016-12-21T02:15:49.129Z,0
2016-12-21T02:17:03.309Z,0
2016-12-21T02:18:17.141Z,0
2016-12-21T02:19:31.228Z,0
2016-12-21T02:20:45.455Z,0
2016-12-21T02:21:59.576Z,0
2016-12-21T02:23:13.742Z,0
2016-12-21T02:24:28.190Z,0
2016-12-21T02:25:42.515Z,0
2016-12-21T02:26:56.267Z,0
2016-12-21T02:28:10.084Z,0
2016-12-21T02:29:24.194Z,0
2016-12-21T02:30:38.197Z,0
2016-12-21T02:31:51.880Z,0
2016-12-21T02:33:06.538Z,0
2016-12-21T02:34:20.778Z,0
2016-12-21T02:35:34.730Z,0
2016-12-21T02:36:48.423Z,0
2016-12-21T02:38:02.338Z,0
2016-12-21T02:39:16.329Z,0
2016-12-21T02:40:30.159Z,0
2016-12-21T02:41:44.280Z,0
2016-12-21T02:42:58.766Z,0
2016-12-21T02:44:12.473Z,0
2016-12-21T02:45:26.554Z,0
2016-12-21T02:46:40.621Z,0
2016-12-21T02:47:55.708Z,0
2016-12-21T02:49:10.076Z,0
2016-12-21T02:50:24.007Z,0
2016-12-21T02:51:38.162Z,0
2016-12-21T02:52:52.517Z,0
2016-12-21T02:54:06.826Z,0
2016-12-21T02:55:20.772Z,0
2016-12-21T02:56:34.491Z,0
2016-12-21T02:57:48.432Z,0
2016-12-21T02:59:02.164Z,0
2016-12-21T03:00:17.228Z,0
2016-12-21T03:01:31.567Z,0
2016-12-21T03:02:45.249Z,0
2016-12-21T03:03:59.764Z,0
2016-12-21T03:05:13.792Z,0
2016-12-21T03:06:27.783Z,0
2016-12-21T03:07:41.842Z,0
2016-12-21T03:08:56.226Z,0
2016-12-21T03:10:11.014Z,0
2016-12-21T03:11:24.839Z,0
2016-12-21T03:12:39.095Z,0
2016-12-21T03:13:53.413Z,0
2016-12-21T03:15:07.785Z,0
2016-12-21T03:16:22.331Z,0
2016-12-21T03:17:38.541Z,0
2016-12-21T03:18:52.565Z,0
2016-12-21T03:20:06.449Z,0
2016-12-21T03:21:20.153Z,0
2016-12-21T03:22:34.908Z,0
2016-12-21T03:23:49.191Z,0
2016-12-21T03:25:03.742Z,0
2016-12-21T03:26:18.389Z,0
2016-12-21T03:27:32.884Z,0
2016-12-21T03:28:48.710Z,0
2016-12-21T03:30:03.082Z,0
2016-12-21T03:31:18.963Z,0
2016-12-21T03:32:33.913Z,0
2016-12-21T03:33:50.919Z,0
2016-12-21T03:35:06.430Z,0
2016-12-21T03:36:24.647Z,0
2016-12-21T03:37:41.590Z,0
2016-12-21T03:38:56.491Z,0
2016-12-21T03:40:11.062Z,0
2016-12-21T03:41:25.652Z,0
2016-12-21T03:42:39.639Z,0
2016-12-21T03:43:54.325Z,0
2016-12-21T03:45:08.306Z,0
2016-12-21T03:46:22.217Z,0
2016-12-21T03:47:36.770Z,0
2016-12-21T03:48:52.082Z,0
2016-12-21T03:50:08.149Z,0
2016-12-21T03:51:22.678Z,0
2016-12-21T03:52:38.986Z,0
2016-12-21T03:53:53.088Z,0
2016-12-21T03:55:09.295Z,0
2016-12-21T03:56:24.455Z,0
2016-12-21T03:57:38.646Z,0
2016-12-21T03:58:52.517Z,0
2016-12-21T04:00:06.673Z,0
2016-12-21T04:01:20.787Z,0
2016-12-21T04:02:35.020Z,0
2016-12-21T04:03:49.276Z,0
2016-12-21T04:05:03.711Z,0
2016-12-21T04:06:17.456Z,0
2016-12-21T04:07:31.693Z,0
2016-12-21T04:08:45.849Z,0
2016-12-21T04:09:59.819Z,0
2016-12-21T04:11:13.723Z,0
2016-12-21T04:12:27.396Z,0
2016-12-21T04:13:41.572Z,0
2016-12-21T04:14:56.497Z,0
2016-12-21T04:16:10.191Z,0
2016-12-21T04:17:23.890Z,0
2016-12-21T04:18:37.938Z,0
2016-12-21T04:19:51.762Z,0
2016-12-21T04:21:05.938Z,0
2016-12-21T04:22:19.970Z,0
2016-12-21T04:23:34.158Z,0
2016-12-21T04:24:48.254Z,0
2016-12-21T04:26:02.784Z,0
2016-12-21T04:27:17.097Z,0
2016-12-21T04:28:31.128Z,0
2016-12-21T04:29:44.840Z,0
2016-12-21T04:30:58.697Z,0
2016-12-21T04:32:12.632Z,0
2016-12-21T04:33:26.867Z,0
2016-12-21T04:34:42.875Z,0
2016-12-21T04:35:56.990Z,0
2016-12-21T04:37:10.716Z,0
2016-12-21T04:38:24.819Z,0
2016-12-21T04:39:38.954Z,0
2016-12-21T04:40:52.891Z,0
2016-12-21T04:42:07.055Z,0
2016-12-21T04:43:20.756Z,0
2016-12-21T04:44:34.707Z,0
2016-12-21T04:45:49.521Z,0
2016-12-21T04:47:03.415Z,0
2016-12-21T04:48:17.235Z,0
2016-12-21T04:49:31.716Z,0
2016-12-21T04:50:46.331Z,0
2016-12-21T04:52:02.276Z,0
2016-12-21T04:53:20.315Z,0
2016-12-21T04:54:51.501Z,0
2016-12-21T04:56:09.872Z,0
2016-12-21T04:57:28.736Z,0
2016-12-21T04:58:46.435Z,0
2016-12-21T05:00:02.789Z,0
2016-12-21T05:01:17.116Z,0
2016-12-21T05:02:31.500Z,0
2016-12-21T05:03:45.401Z,0
2016-12-21T05:04:59.751Z,0
2016-12-21T05:06:13.476Z,0
2016-12-21T05:07:27.541Z,0
2016-12-21T05:08:42.398Z,0
2016-12-21T05:09:58.433Z,0
2016-12-21T05:11:13.588Z,0
2016-12-21T05:12:27.668Z,0
2016-12-21T05:13:41.507Z,0
2016-12-21T05:14:56.236Z,0
2016-12-21T05:16:10.159Z,0
2016-12-21T05:17:24.657Z,0
2016-12-21T05:18:38.447Z,0
2016-12-21T05:19:52.193Z,0
2016-12-21T05:21:06.465Z,0
2016-12-21T05:22:20.429Z,0
2016-12-21T05:23:34.598Z,0
2016-12-21T05:24:48.579Z,0
2016-12-21T05:26:03.080Z,0
2016-12-21T05:27:17.783Z,0
2016-12-21T05:28:34.495Z,0
2016-12-21T05:29:50.963Z,0
2016-12-21T05:31:07.579Z,0
2016-12-21T05:32:40.029Z,0
2016-12-21T05:33:55.925Z,0
2016-12-21T05:35:12.489Z,0
2016-12-21T05:36:27.976Z,0
2016-12-21T05:37:43.199Z,0
2016-12-21T05:38:58.032Z,0
2016-12-21T05:40:13.401Z,0
2016-12-21T05:41:27.884Z,0
2016-12-21T05:42:41.896Z,0
2016-12-21T05:43:56.017Z,0
2016-12-21T05:45:09.979Z,0
2016-12-21T05:46:23.750Z,0
2016-12-21T05:47:38.141Z,0
2016-12-21T05:48:52.309Z,0
2016-12-21T05:50:06.291Z,0
2016-12-21T05:51:20.226Z,0
2016-12-21T05:52:37.664Z,0
2016-12-21T05:53:52.591Z,0
2016-12-21T05:55:06.957Z,0
2016-12-21T05:56:21.483Z,0
2016-12-21T05:57:35.636Z,0
2016-12-21T05:58:49.460Z,0
2016-12-21T06:00:03.523Z,0
2016-12-21T06:01:17.444Z,0
2016-12-21T06:02:31.180Z,0
2016-12-21T06:03:44.896Z,0
2016-12-21T06:04:59.232Z,0
2016-12-21T06:06:13.625Z,0
2016-12-21T06:07:27.319Z,0
2016-12-21T06:08:41.007Z,0
2016-12-21T06:09:55.568Z,0
2016-12-21T06:11:10.444Z,0
2016-12-21T06:12:26.194Z,0
2016-12-21T06:13:42.072Z,0
2016-12-21T06:14:57.654Z,0
2016-12-21T06:16:12.575Z,0
2016-12-21T06:17:28.375Z,0
2016-12-21T06:18:44.418Z,0
2016-12-21T06:19:59.050Z,0
2016-12-21T06:21:14.878Z,0
2016-12-21T06:22:32.016Z,0
2016-12-21T06:23:50.589Z,0
2016-12-21T06:25:23.065Z,0
2016-12-21T06:26:41.811Z,0
2016-12-21T06:27:58.830Z,0
2016-12-21T06:29:15.861Z,0
2016-12-21T06:30:33.216Z,0
2016-12-21T06:31:51.106Z,0
2016-12-21T06:33:08.226Z,0
2016-12-21T06:34:24.408Z,0
2016-12-21T06:35:38.863Z,0
2016-12-21T06:36:53.210Z,0
2016-12-21T06:38:07.210Z,0
2016-12-21T06:39:21.325Z,0
2016-12-21T06:40:35.126Z,0
2016-12-21T06:41:50.482Z,0
2016-12-21T06:43:05.937Z,0
2016-12-21T06:44:21.323Z,0
2016-12-21T06:45:37.185Z,0
2016-12-21T06:46:52.554Z,0
2016-12-21T06:48:06.964Z,0
2016-12-21T06:49:21.877Z,0
2016-12-21T06:50:36.314Z,0
2016-12-21T06:51:50.537Z,0
2016-12-21T06:53:04.897Z,0
2016-12-21T06:54:18.825Z,0
2016-12-21T06:55:33.234Z,0
2016-12-21T06:56:47.221Z,0
2016-12-21T06:58:01.380Z,4
2016-12-21T06:59:17.190Z,4
2016-12-21T07:00:31.692Z,0
2016-12-21T07:01:47.408Z,0
2016-12-21T07:03:17.606Z,4
2016-12-21T07:04:33.411Z,4
2016-12-21T07:05:47.869Z,4
2016-12-21T07:07:01.635Z,4
2016-12-21T07:08:16.158Z,4
2016-12-21T07:09:30.843Z,8
2016-12-21T07:10:47.301Z,4
2016-12-21T07:12:01.881Z,8
2016-12-21T07:13:16.964Z,8
2016-12-21T07:14:30.910Z,8
2016-12-21T07:15:44.988Z,12
2016-12-21T07:16:59.001Z,16
2016-12-21T07:18:27.916Z,16
2016-12-21T07:19:42.092Z,16
2016-12-21T07:20:56.646Z,16
2016-12-21T07:22:11.257Z,20
2016-12-21T07:23:25.594Z,24
2016-12-21T07:24:39.459Z,28
2016-12-21T07:25:54.439Z,24
2016-12-21T07:27:10.732Z,24
2016-12-21T07:28:29.314Z,28
2016-12-21T07:29:46.520Z,32
2016-12-21T07:31:05.105Z,32
2016-12-21T07:32:23.363Z,36
2016-12-21T07:33:38.044Z,40
2016-12-21T07:34:53.171Z,44
2016-12-21T07:36:07.250Z,44
2016-12-21T07:37:21.443Z,56
2016-12-21T07:38:35.785Z,56
2016-12-21T07:39:49.853Z,68
2016-12-21T07:41:04.224Z,72
2016-12-21T07:42:18.329Z,72
2016-12-21T07:43:32.518Z,76
2016-12-21T07:44:46.614Z,72
2016-12-21T07:47:29.437Z,76
2016-12-21T07:48:44.100Z,84
2016-12-21T07:49:58.215Z,92
2016-12-21T07:51:11.955Z,92
2016-12-21T07:52:25.642Z,96
2016-12-21T07:53:40.030Z,112
2016-12-21T07:54:53.972Z,128
2016-12-21T07:56:08.535Z,124
2016-12-21T07:57:22.830Z,132
2016-12-21T07:58:36.766Z,164
2016-12-21T07:59:51.179Z,168
2016-12-21T08:01:05.121Z,200
2016-12-21T08:02:19.088Z,192
2016-12-21T08:03:33.217Z,216
2016-12-21T08:04:47.055Z,216
2016-12-21T08:06:01.409Z,252
2016-12-21T08:07:15.757Z,256
2016-12-21T08:08:30.465Z,248
2016-12-21T08:09:45.319Z,276
2016-12-21T08:10:59.641Z,268
2016-12-21T08:12:15.110Z,264
2016-12-21T08:13:28.948Z,276
2016-12-21T08:14:43.672Z,288
2016-12-21T08:15:57.426Z,284
2016-12-21T08:17:11.268Z,312
2016-12-21T08:18:25.947Z,296
2016-12-21T08:19:39.625Z,304
2016-12-21T08:20:53.706Z,320
2016-12-21T08:22:08.357Z,312
2016-12-21T08:23:22.063Z,312
2016-12-21T08:24:36.443Z,300
2016-12-21T08:25:50.581Z,308
2016-12-21T08:27:05.053Z,332
2016-12-21T08:28:21.389Z,368
2016-12-21T08:29:35.559Z,372
2016-12-21T08:30:49.591Z,356
2016-12-21T08:32:04.303Z,356
2016-12-21T08:33:18.537Z,352
2016-12-21T08:34:32.808Z,332
2016-12-21T08:35:46.598Z,328
2016-12-21T08:38:29.286Z,356
2016-12-21T08:39:43.950Z,380
2016-12-21T08:40:57.661Z,392
2016-12-21T08:42:11.808Z,416
2016-12-21T08:43:26.658Z,428
2016-12-21T08:44:40.771Z,456
2016-12-21T08:45:55.136Z,456
2016-12-21T08:47:09.605Z,436
2016-12-21T08:48:24.541Z,392
2016-12-21T08:49:39.533Z,400
2016-12-21T08:51:24.972Z,432
2016-12-21T08:54:38.251Z,392
2016-12-21T08:55:53.616Z,388
2016-12-21T08:57:10.663Z,388
2016-12-21T08:58:27.885Z,384
2016-12-21T08:59:45.297Z,428
2016-12-21T09:01:02.945Z,440
2016-12-21T09:02:20.147Z,416
2016-12-21T09:03:38.299Z,428
2016-12-21T09:04:57.082Z,400
2016-12-21T09:06:15.327Z,360
2016-12-21T09:07:31.884Z,360
2016-12-21T09:08:46.841Z,344
2016-12-21T09:10:02.414Z,320
2016-12-21T09:11:19.945Z,300
2016-12-21T09:12:37.281Z,288
2016-12-21T09:13:54.404Z,296
2016-12-21T09:15:12.167Z,300
2016-12-21T09:16:30.010Z,312
2016-12-21T09:17:47.628Z,320
2016-12-21T09:19:05.753Z,348
2016-12-21T09:20:24.031Z,376
2016-12-21T09:21:41.135Z,356
2016-12-21T09:22:57.419Z,340
2016-12-21T09:24:13.561Z,344
2016-12-21T09:25:28.339Z,356
2016-12-21T09:26:42.809Z,364
2016-12-21T09:27:59.500Z,364
2016-12-21T09:29:16.680Z,408
2016-12-21T09:30:35.322Z,408
2016-12-21T09:31:53.509Z,404
2016-12-21T09:33:11.453Z,424
2016-12-21T09:34:28.094Z,436
2016-12-21T09:35:45.734Z,452
2016-12-21T09:37:03.746Z,404
2016-12-21T09:38:19.628Z,408
2016-12-21T09:39:34.830Z,416
2016-12-21T09:41:05.789Z,424
2016-12-21T09:42:36.773Z,464
2016-12-21T09:43:51.017Z,460
2016-12-21T09:45:06.597Z,440
2016-12-21T09:46:21.331Z,444
2016-12-21T09:47:35.681Z,460
2016-12-21T09:48:53.074Z,452
2016-12-21T09:50:07.076Z,460
2016-12-21T09:51:22.221Z,432
2016-12-21T09:52:37.373Z,428
2016-12-21T09:53:51.425Z,412
2016-12-21T09:55:05.752Z,400
2016-12-21T09:56:20.574Z,412
2016-12-21T09:57:34.919Z,436
2016-12-21T09:58:48.853Z,436
2016-12-21T10:00:03.310Z,420
2016-12-21T10:01:17.723Z,396
2016-12-21T10:02:31.730Z,396
2016-12-21T10:04:00.334Z,380
2016-12-21T10:05:14.394Z,348
2016-12-21T10:06:28.109Z,360
2016-12-21T10:07:42.301Z,356
2016-12-21T10:08:56.655Z,368
2016-12-21T10:10:12.095Z,352
2016-12-21T10:11:29.214Z,352
2016-12-21T10:12:45.968Z,396
2016-12-21T10:14:02.796Z,396
2016-12-21T10:15:20.083Z,396
2016-12-21T10:16:39.043Z,404
2016-12-21T10:17:55.421Z,396
2016-12-21T10:19:12.744Z,424
2016-12-21T10:20:28.708Z,428
2016-12-21T10:21:43.851Z,424
2016-12-21T10:22:58.598Z,448
2016-12-21T10:24:15.363Z,476
2016-12-21T10:25:33.801Z,492
2016-12-21T10:26:51.414Z,468
2016-12-21T10:28:08.723Z,464
2016-12-21T10:29:26.622Z,440
2016-12-21T10:30:42.670Z,428
2016-12-21T10:31:58.045Z,444
2016-12-21T10:33:28.521Z,460
2016-12-21T10:34:44.016Z,436
2016-12-21T10:36:14.919Z,408
2016-12-21T10:37:29.692Z,424
2016-12-21T10:38:45.508Z,508
2016-12-21T10:40:00.958Z,484
2016-12-21T10:41:15.653Z,480
2016-12-21T10:42:30.859Z,544
2016-12-21T10:43:46.126Z,524
2016-12-21T10:45:15.776Z,516
2016-12-21T10:46:30.434Z,504
2016-12-21T10:47:44.795Z,520
2016-12-21T10:48:59.059Z,516
2016-12-21T10:50:13.702Z,520
2016-12-21T10:51:28.031Z,544
2016-12-21T10:52:42.637Z,492
2016-12-21T10:53:59.301Z,568
2016-12-21T10:55:16.185Z,636
2016-12-21T10:56:33.604Z,652
2016-12-21T10:57:51.230Z,612
2016-12-21T10:59:07.055Z,552
2016-12-21T11:00:22.429Z,484
2016-12-21T11:01:37.428Z,488
2016-12-21T11:02:52.131Z,504
2016-12-21T11:04:07.736Z,504
2016-12-21T11:05:23.248Z,520
2016-12-21T11:06:38.338Z,512
2016-12-21T11:08:05.114Z,552
2016-12-21T11:09:32.550Z,544
2016-12-21T11:10:46.747Z,552
2016-12-21T11:12:03.559Z,560
2016-12-21T11:13:20.299Z,564
2016-12-21T11:14:38.167Z,564
2016-12-21T11:16:09.091Z,584
2016-12-21T11:17:26.207Z,596
2016-12-21T11:18:58.519Z,588
2016-12-21T11:20:15.961Z,624
2016-12-21T11:21:33.668Z,576
2016-12-21T11:23:20.858Z,556
2016-12-21T11:24:39.486Z,560
2016-12-21T11:25:56.873Z,552
2016-12-21T11:27:12.781Z,584
2016-12-21T11:28:30.010Z,544
2016-12-21T11:30:03.018Z,556
2016-12-21T11:31:20.614Z,556
2016-12-21T11:32:35.109Z,572
2016-12-21T11:33:50.780Z,540
2016-12-21T11:35:08.572Z,556
2016-12-21T11:36:24.784Z,532
2016-12-21T11:37:41.954Z,572
2016-12-21T11:38:59.047Z,564
2016-12-21T11:40:15.228Z,572
2016-12-21T11:41:31.239Z,620
2016-12-21T11:42:53.316Z,596
2016-12-21T11:44:28.268Z,556
2016-12-21T11:46:04.963Z,536
2016-12-21T11:47:28.851Z,532
2016-12-21T11:48:49.484Z,508
2016-12-21T11:50:07.503Z,508
2016-12-21T11:51:24.694Z,512
2016-12-21T11:52:49.490Z,508
2016-12-21T11:54:06.123Z,520
2016-12-21T11:55:20.615Z,504
2016-12-21T11:56:35.235Z,520
2016-12-21T11:57:50.581Z,512
2016-12-21T11:59:05.229Z,492
2016-12-21T12:00:20.325Z,508
2016-12-21T12:01:35.236Z,500
2016-12-21T12:02:49.531Z,504
2016-12-21T12:04:04.050Z,476
2016-12-21T12:05:18.850Z,472
2016-12-21T12:06:34.634Z,456
2016-12-21T12:07:50.255Z,460
2016-12-21T12:09:06.883Z,444
2016-12-21T12:10:22.489Z,452
2016-12-21T12:11:38.916Z,464
2016-12-21T12:12:55.675Z,460
2016-12-21T12:14:11.594Z,444
2016-12-21T12:15:27.193Z,428
2016-12-21T12:16:42.154Z,420
2016-12-21T12:17:58.722Z,432
2016-12-21T12:19:20.486Z,432
2016-12-21T12:20:36.735Z,392
2016-12-21T12:21:52.278Z,408
2016-12-21T12:23:08.709Z,412
2016-12-21T12:24:25.009Z,408
2016-12-21T12:25:41.852Z,412
2016-12-21T12:26:57.469Z,400
2016-12-21T12:28:13.043Z,432
2016-12-21T12:29:31.681Z,428
2016-12-21T12:30:47.962Z,420
2016-12-21T12:32:03.707Z,408
2016-12-21T12:33:19.810Z,412
2016-12-21T12:34:35.622Z,424
2016-12-21T12:35:49.943Z,408
2016-12-21T12:37:04.402Z,396
2016-12-21T12:38:19.440Z,400
2016-12-21T12:39:34.080Z,416
2016-12-21T12:40:48.706Z,412
2016-12-21T12:42:02.665Z,404
2016-12-21T12:43:16.528Z,380
2016-12-21T12:44:31.351Z,384
2016-12-21T12:45:45.356Z,388
2016-12-21T12:46:59.424Z,392
2016-12-21T12:48:13.749Z,368
2016-12-21T12:49:28.266Z,356
2016-12-21T12:50:42.730Z,336
2016-12-21T12:51:57.690Z,320
2016-12-21T12:53:13.249Z,324
2016-12-21T12:54:29.343Z,320
2016-12-21T12:55:43.665Z,344
2016-12-21T12:56:58.160Z,352
2016-12-21T12:58:12.697Z,356
2016-12-21T12:59:27.585Z,352
2016-12-21T13:00:42.304Z,348
2016-12-21T13:01:56.560Z,332
2016-12-21T13:03:12.101Z,316
2016-12-21T13:04:26.468Z,324
2016-12-21T13:05:40.750Z,332
2016-12-21T13:06:54.549Z,336
2016-12-21T13:09:07.619Z,344
2016-12-21T13:10:22.650Z,356
2016-12-21T13:11:36.463Z,352
2016-12-21T13:12:51.822Z,348
2016-12-21T13:14:06.350Z,348
2016-12-21T13:15:21.841Z,332
2016-12-21T13:16:41.475Z,308
2016-12-21T13:18:00.583Z,300
2016-12-21T13:19:47.145Z,284
2016-12-21T13:21:06.491Z,288
2016-12-21T13:22:26.404Z,284
2016-12-21T13:23:45.099Z,288
2016-12-21T13:25:01.647Z,284
2016-12-21T13:26:19.119Z,280
2016-12-21T13:27:37.312Z,264
2016-12-21T13:28:54.558Z,268
2016-12-21T13:30:13.132Z,264
2016-12-21T13:31:34.238Z,264
2016-12-21T13:32:51.305Z,244
2016-12-21T13:34:06.402Z,248
2016-12-21T13:35:21.425Z,248
2016-12-21T13:36:38.911Z,248
2016-12-21T13:38:01.694Z,264
2016-12-21T13:39:35.408Z,272
2016-12-21T13:41:04.449Z,252
2016-12-21T13:42:28.438Z,260
2016-12-21T13:43:45.486Z,236
2016-12-21T13:45:01.342Z,228
2016-12-21T13:46:18.044Z,228
2016-12-21T13:47:39.486Z,252
2016-12-21T13:48:56.569Z,256
2016-12-21T13:50:32.887Z,232
2016-12-21T13:51:50.212Z,232
2016-12-21T13:53:05.929Z,216
2016-12-21T13:54:20.382Z,212
2016-12-21T13:55:35.269Z,208
2016-12-21T13:56:49.830Z,216
2016-12-21T13:58:04.538Z,208
2016-12-21T13:59:19.335Z,224
2016-12-21T14:00:34.192Z,240
2016-12-21T14:01:48.057Z,240
2016-12-21T14:03:03.094Z,240
2016-12-21T14:04:18.972Z,232
2016-12-21T14:05:34.571Z,224
2016-12-21T14:06:50.220Z,228
2016-12-21T14:08:04.356Z,216
2016-12-21T14:09:18.783Z,224
2016-12-21T14:10:33.925Z,220
2016-12-21T14:11:48.227Z,220
2016-12-21T14:13:02.390Z,224
2016-12-21T14:14:16.717Z,220
2016-12-21T14:15:31.148Z,220
2016-12-21T14:16:45.633Z,212
2016-12-21T14:18:00.331Z,220
2016-12-21T14:19:15.366Z,212
2016-12-21T14:20:29.976Z,200
2016-12-21T14:21:44.807Z,200
2016-12-21T14:22:59.004Z,196
2016-12-21T14:24:27.521Z,188
2016-12-21T14:25:41.447Z,184
2016-12-21T14:26:55.374Z,188
2016-12-21T14:28:09.732Z,184
2016-12-21T14:29:23.612Z,168
2016-12-21T14:30:37.574Z,168
2016-12-21T14:31:51.555Z,160
2016-12-21T14:33:05.623Z,168
2016-12-21T14:34:19.707Z,184
2016-12-21T14:35:33.485Z,168
2016-12-21T14:36:47.779Z,160
2016-12-21T14:38:01.484Z,160
2016-12-21T14:39:15.446Z,156
2016-12-21T14:40:30.084Z,152
2016-12-21T14:41:44.452Z,160
2016-12-21T14:42:59.400Z,156
2016-12-21T14:44:14.553Z,160
2016-12-21T14:45:29.803Z,144
2016-12-21T14:46:44.624Z,168
2016-12-21T14:47:58.532Z,168
2016-12-21T14:49:12.683Z,196
2016-12-21T14:50:27.158Z,184
2016-12-21T14:51:41.813Z,196
2016-12-21T14:52:56.178Z,188
2016-12-21T14:54:11.203Z,188
2016-12-21T14:55:25.490Z,172
2016-12-21T14:56:39.308Z,172
2016-12-21T14:57:53.685Z,160
2016-12-21T14:59:08.295Z,132
2016-12-21T15:00:22.496Z,128
2016-12-21T15:01:36.886Z,120
2016-12-21T15:02:50.611Z,112
2016-12-21T15:04:05.421Z,108
2016-12-21T15:05:20.215Z,104
2016-12-21T15:06:34.046Z,100
2016-12-21T15:07:50.525Z,100
2016-12-21T15:09:04.655Z,92
2016-12-21T15:10:19.062Z,76
2016-12-21T15:11:33.489Z,76
2016-12-21T15:12:49.069Z,76
2016-12-21T15:14:03.461Z,72
2016-12-21T15:15:17.505Z,60
2016-12-21T15:16:31.212Z,56
2016-12-21T15:17:45.305Z,52
2016-12-21T15:18:59.384Z,52
2016-12-21T15:20:13.350Z,48
2016-12-21T15:21:27.673Z,40
2016-12-21T15:22:41.742Z,40
2016-12-21T15:23:56.758Z,36
2016-12-21T15:25:10.994Z,32
2016-12-21T15:26:25.832Z,32
2016-12-21T15:27:40.528Z,28
2016-12-21T15:28:54.280Z,24
2016-12-21T15:30:08.752Z,24
2016-12-21T15:31:22.617Z,20
2016-12-21T15:32:36.993Z,20
2016-12-21T15:33:51.425Z,16
2016-12-21T15:35:05.517Z,16
2016-12-21T15:36:19.996Z,12
2016-12-21T15:37:34.070Z,12
2016-12-21T15:38:48.413Z,8
2016-12-21T15:40:02.568Z,8
2016-12-21T15:41:31.126Z,8
2016-12-21T15:42:45.400Z,4
2016-12-21T15:43:59.825Z,4
2016-12-21T15:45:13.912Z,0
2016-12-21T15:46:28.507Z,4
2016-12-21T15:47:43.120Z,0
2016-12-21T15:48:57.336Z,4
2016-12-21T15:50:12.345Z,4
2016-12-21T15:51:27.480Z,0
2016-12-21T15:52:41.466Z,0
2016-12-21T15:53:55.526Z,0
2016-12-21T15:55:24.611Z,0
2016-12-21T15:56:39.191Z,0
2016-12-21T15:57:52.931Z,0
2016-12-21T15:59:07.357Z,0
2016-12-21T16:00:22.238Z,0
2016-12-21T16:01:36.028Z,0
2016-12-21T16:02:49.768Z,0
2016-12-21T16:04:04.175Z,0
2016-12-21T16:05:18.199Z,0
2016-12-21T16:06:32.528Z,0
2016-12-21T16:07:46.845Z,0
2016-12-21T16:09:01.866Z,0
2016-12-21T16:10:15.656Z,0
2016-12-21T16:11:29.774Z,0
2016-12-21T16:12:44.021Z,0
2016-12-21T16:13:58.447Z,0
2016-12-21T16:15:12.175Z,0
2016-12-21T16:16:25.888Z,0
2016-12-21T16:17:39.647Z,0
2016-12-21T16:18:53.890Z,0
2016-12-21T16:20:07.954Z,0
2016-12-21T16:21:21.994Z,0
2016-12-21T16:22:35.763Z,0
2016-12-21T16:23:49.813Z,0
2016-12-21T16:25:06.296Z,0
2016-12-21T16:26:20.397Z,0
2016-12-21T16:27:35.528Z,0
2016-12-21T16:28:49.608Z,0
2016-12-21T16:30:03.896Z,0
2016-12-21T16:31:18.929Z,0
2016-12-21T16:32:33.220Z,0
2016-12-21T16:33:48.058Z,0
2016-12-21T16:35:01.795Z,0
2016-12-21T16:36:16.207Z,0
2016-12-21T16:37:30.601Z,0
2016-12-21T16:38:44.558Z,0
2016-12-21T16:39:58.612Z,0
2016-12-21T16:41:13.112Z,0
2016-12-21T16:42:27.961Z,0
2016-12-21T16:43:42.903Z,0
2016-12-21T16:44:57.447Z,0
2016-12-21T16:46:11.745Z,0
2016-12-21T16:47:25.881Z,0
2016-12-21T16:48:39.998Z,0
2016-12-21T16:49:54.955Z,0
2016-12-21T16:51:09.027Z,0
2016-12-21T16:52:23.422Z,0
2016-12-21T16:53:37.503Z,0
2016-12-21T16:54:51.530Z,0
2016-12-21T16:56:05.505Z,0
2016-12-21T16:57:20.428Z,0
2016-12-21T16:58:50.577Z,0
2016-12-21T17:00:05.060Z,0
2016-12-21T17:01:19.740Z,0
2016-12-21T17:02:34.030Z,0
2016-12-21T17:03:47.928Z,0
2016-12-21T17:05:02.902Z,0
2016-12-21T17:06:16.741Z,0
2016-12-21T17:07:31.452Z,0
2016-12-21T17:08:45.866Z,0
2016-12-21T17:09:59.974Z,0
2016-12-21T17:11:14.160Z,0
2016-12-21T17:12:28.968Z,0
2016-12-21T17:13:43.482Z,0
2016-12-21T17:14:57.240Z,0
2016-12-21T17:16:11.257Z,0
2016-12-21T17:17:24.993Z,0
2016-12-21T17:18:39.450Z,0
2016-12-21T17:19:54.449Z,0
2016-12-21T17:21:08.859Z,0
2016-12-21T17:22:23.311Z,0
2016-12-21T17:23:38.052Z,0
2016-12-21T17:24:52.060Z,0
2016-12-21T17:26:06.274Z,0
2016-12-21T17:27:21.436Z,0
2016-12-21T17:28:35.240Z,0
2016-12-21T17:29:50.564Z,0
2016-12-21T17:31:05.065Z,0
2016-12-21T17:32:19.970Z,0
2016-12-21T17:33:34.322Z,0
2016-12-21T17:34:49.262Z,0
2016-12-21T17:36:03.786Z,0
2016-12-21T17:37:18.228Z,0
2016-12-21T17:38:32.695Z,0
2016-12-21T17:39:47.356Z,0
2016-12-21T17:41:02.752Z,0
2016-12-21T17:45:55.707Z,0
2016-12-21T17:47:26.118Z,0
2016-12-21T17:48:40.303Z,0
2016-12-21T17:49:57.016Z,0
2016-12-21T17:51:13.349Z,0
2016-12-21T17:52:27.814Z,0
2016-12-21T17:53:41.996Z,0
2016-12-21T17:54:57.427Z,0
2016-12-21T17:56:12.071Z,0
2016-12-21T17:57:27.460Z,0
2016-12-21T17:58:44.681Z,0
2016-12-21T17:59:58.861Z,0
2016-12-21T18:01:12.997Z,0
2016-12-21T18:02:28.215Z,0
2016-12-21T18:04:12.184Z,0
2016-12-21T18:05:26.709Z,0
2016-12-21T18:06:41.085Z,0
2016-12-21T18:07:55.979Z,0
2016-12-21T18:09:16.179Z,0
2016-12-21T18:10:30.465Z,0
2016-12-21T18:11:45.749Z,0
2016-12-21T18:13:00.373Z,0
2016-12-21T18:14:15.130Z,0
2016-12-21T18:15:30.450Z,0
2016-12-21T18:16:45.377Z,0
2016-12-21T18:18:00.661Z,0
2016-12-21T18:19:15.400Z,0
2016-12-21T18:20:30.691Z,0
2016-12-21T18:21:44.963Z,0
2016-12-21T18:22:58.851Z,0
2016-12-21T18:24:13.828Z,0
2016-12-21T18:25:28.707Z,0
2016-12-21T18:26:43.237Z,0
2016-12-21T18:27:57.468Z,0
2016-12-21T18:29:12.069Z,0